Flight Track Log - Related Links

Times and Time Zones

All times are in EDT time to prevent confusion due to time zone crossing. See the CSJ405 flight status page for this flight to view local times or setup timezone preferences in your user account.

Time Position Orientation Groundspeed Altitude Reporting Facility
EDT Latitude Longitude Course Direction KTS MPH feet Rate Location/Type
Mon 07:38:01 PM 40.8000 -74.2833 180° South 101 116 3,500  Level New York TRACON
Mon 07:39:01 PM 40.7833 -74.3000 217° Southwest 116 133 4,600 1,050 Climbing New York TRACON
Mon 07:40:01 PM 40.7833 -74.3500 270° West 135 155 5,600 900 Climbing New York TRACON
Mon 07:41:01 PM 40.8167 -74.3333 21° North 142 163 6,400 800 Climbing New York TRACON
Mon 07:42:01 PM 40.8500 -74.3333 360° North 144 166 7,200 800 Climbing New York TRACON
Mon 07:43:01 PM 40.8833 -74.3500 339° North 144 166 8,000 750 Climbing New York TRACON
Mon 07:44:01 PM 40.9167 -74.3667 339° North 148 170 8,700 500 Climbing New York TRACON
Mon 07:45:01 PM 40.9667 -74.3833 346° North 158 182 9,000 157 Climbing New York TRACON
Mon 07:45:56 PM 41.0000 -74.4000 339° North 175 201 9,000 -20 Level New York TRACON
Mon 07:47:00 PM 41.0309 -74.4453 346° North  Level Estimated
Mon 07:54:00 PM 41.3301 -74.4854 314° West  Level FlightAware Approximate
Mon 07:55:00 PM 41.3599 -74.5271 314° West  Level FlightAware Approximate
Mon 07:56:00 PM 41.3896 -74.5688 314° West  Level FlightAware Approximate
Mon 07:57:00 PM 41.4162 -74.6140 305° West  Level FlightAware Approximate
Mon 07:58:00 PM 41.4411 -74.6611 305° West  Level FlightAware Approximate
Mon 07:59:00 PM 41.4659 -74.7082 305° West  Level FlightAware Approximate
Mon 08:00:00 PM 41.4908 -74.7554 305° West  Level FlightAware Approximate
Mon 08:01:00 PM 41.5156 -74.8026 305° West  Level FlightAware Approximate
Mon 08:02:00 PM 41.5404 -74.8499 305° West  Level FlightAware Approximate
Mon 08:03:00 PM 41.5652 -74.8971 305° West  Level FlightAware Approximate
Mon 08:04:00 PM 41.5877 -74.9464 301° West  Level FlightAware Approximate
Mon 08:05:00 PM 41.6100 -74.9959 301° West  Level FlightAware Approximate
Mon 08:06:00 PM 41.6323 -75.0454 301° West  Level FlightAware Approximate
Mon 08:07:00 PM 41.6546 -75.0949 301° West  Level FlightAware Approximate
Mon 08:08:00 PM 41.6768 -75.1444 301° West  Level FlightAware Approximate
Mon 08:09:00 PM 41.6991 -75.1940 301° West  Level FlightAware Approximate
Mon 08:10:00 PM 41.7220 -75.2430 307° West  Level FlightAware Approximate
Mon 08:11:00 PM 41.7478 -75.2894 307° West  Level FlightAware Approximate
Mon 08:12:00 PM 41.7737 -75.3358 307° West  Level FlightAware Approximate
Mon 08:13:00 PM 41.7994 -75.3823 307° West  Level FlightAware Approximate
Mon 08:14:00 PM 41.8206 -75.4328 299° West  Level FlightAware Approximate
Mon 08:15:00 PM 41.8417 -75.4834 299° West  Level FlightAware Approximate
Mon 08:16:00 PM 41.8628 -75.5340 299° West  Level FlightAware Approximate
Mon 08:17:00 PM 41.8840 -75.5845 306° West  Level FlightAware Approximate
Mon 08:18:00 PM 41.9093 -75.6315 306° West  Level FlightAware Approximate
Mon 08:19:00 PM 41.9347 -75.6785 306° West  Level FlightAware Approximate
Mon 08:20:00 PM 41.9600 -75.7255 306° West  Level FlightAware Approximate
Mon 08:21:00 PM 41.9853 -75.7726 306° West  Level FlightAware Approximate
Mon 08:22:00 PM 42.0095 -75.8208 302° West  Level FlightAware Approximate
Mon 08:23:00 PM 42.0320 -75.8704 302° West  Level FlightAware Approximate
Mon 08:24:00 PM 42.0546 -75.9200 301° West  Level FlightAware Approximate
Mon 08:25:00 PM 42.0771 -75.9696 301° West  Level FlightAware Approximate
Mon 08:26:00 PM 42.0994 -76.0194 301° West  Level FlightAware Approximate
Mon 08:27:00 PM 42.1216 -76.0694 301° West  Level FlightAware Approximate
Mon 08:28:00 PM 42.1438 -76.1194 301° West  Level FlightAware Approximate
Mon 08:29:00 PM 42.1662 -76.1692 301° West  Level FlightAware Approximate
Mon 08:30:00 PM 42.1887 -76.2189 301° West  Level FlightAware Approximate
Mon 08:31:00 PM 42.2112 -76.2688 301° West  Level FlightAware Approximate
Mon 08:32:00 PM 42.2336 -76.3186 301° West  Level FlightAware Approximate
Mon 08:33:00 PM 42.2560 -76.3685 301° West  Level FlightAware Approximate
Mon 08:33:54 PM 42.5347 -76.7056 297° West 175 201 8,000  Level Cleveland Center
Mon 08:34:00 PM 42.2784 -76.4184 301° West  Level FlightAware Approximate
Mon 08:35:00 PM 42.3007 -76.4684 298° West  Level FlightAware Approximate
Mon 08:35:07 PM 42.5722 -76.7681 309° West 172 198 8,000  Level Cleveland Center
Mon 08:36:00 PM 42.3213 -76.5198 298° West  Level FlightAware Approximate
Mon 08:36:07 PM 42.6050 -76.8169 312° West 173 199 8,000  Level Cleveland Center
Mon 08:37:00 PM 42.3418 -76.5711 298° West  Level FlightAware Approximate
Mon 08:37:08 PM 42.6319 -76.8689 305° West 174 200 8,000  Level Cleveland Center
Mon 08:38:00 PM 42.3624 -76.6226 298° West  Level FlightAware Approximate
Mon 08:38:09 PM 42.6667 -76.9150 316° Northwest 175 201 8,000  Level Cleveland Center
Mon 08:39:00 PM 42.3821 -76.6745 297° West  Level FlightAware Approximate
Mon 08:40:10 PM 42.7242 -77.0189 307° West 173 199 8,000  Level Cleveland Center
Mon 08:42:00 PM 42.7748 -77.1018 317° Northwest  Level Estimated
Mon 08:43:12 PM 42.8183 -77.1750 317° Northwest 172 198 8,000  Level Cleveland Center
Mon 08:44:12 PM 42.8492 -77.2272 309° West 170 196 8,000 -198 Level Cleveland Center
Mon 08:45:13 PM 42.8800 -77.2794 309° West 176 203 7,600 -545 Descending Cleveland Center
Mon 08:46:13 PM 42.9125 -77.3286 312° West 183 211 6,900 -694 Descending Cleveland Center
Mon 08:47:14 PM 42.9453 -77.3839 309° West 185 213 6,200 -639 Descending Cleveland Center
Mon 08:48:15 PM 42.9844 -77.4414 313° West 190 219 5,600 -793 Descending Cleveland Center
Mon 08:49:15 PM 43.0214 -77.4964 313° West 198 228 4,600 -895 Descending Cleveland Center
Mon 08:51:16 PM 43.0625 -77.6306 293° West 186 214 2,900 -758 Descending Cleveland Center
Mon 08:52:17 PM 43.0703 -77.6928 280° West 160 184 2,300 -738 Descending Cleveland Center
Mon 08:53:18 PM 43.1036 -77.6969 355° North 103 119 1,400 -885 Descending Cleveland Center
Mon 08:55:00 PM 43.1167 -77.6667 312° West  Level FlightAware Approximate
Mon 09:02:00 PM 43.1191 -77.6719 312° West  Level Estimated

Login

Don't have an account? Register now (free) for customized features, flight alerts, and more!